Flight Track Log - Related Links

Times and Time Zones

All times are in EDT time to prevent confusion due to time zone crossing. See the FWL733 flight status page for this flight to view local times or setup timezone preferences in your user account.

Time Position Orientation Groundspeed Altitude Reporting Facility
EDT Latitude Longitude Course Direction KTS MPH feet Rate Location/Type
Wed 06:33:23 AM 25.7880 -80.2720 80° East 177 204 700  Level FlightAware ADS-B
Wed 06:33:33 AM 25.7860 -80.2630 104° East 179 206 1,100 1,650 Climbing FlightAware ADS-B
Wed 06:34:03 AM 25.7730 -80.2350 117° Southeast 212 244 1,800 1,745 Climbing FlightAware ADS-B
Wed 06:34:28 AM 25.7610 -80.2110 119° Southeast 223 257 2,700 1,855 Climbing FlightAware ADS-B
Wed 06:34:58 AM 25.7460 -80.1770 116° Southeast 254 292 3,500 1,900 Climbing FlightAware ADS-B
Wed 06:35:28 AM 25.7240 -80.1460 128° Southeast 274 315 4,600 2,400 Climbing FlightAware ADS-B
Wed 06:35:43 AM 25.7070 -80.1390 160° South 275 316 5,300 2,700 Climbing FlightAware ADS-B
Wed 06:36:08 AM 25.6760 -80.1250 158° South 282 325 6,400 2,550 Climbing FlightAware ADS-B
Wed 06:36:23 AM 25.6570 -80.1170 159° South 290 334 7,000 2,400 Climbing FlightAware ADS-B
Wed 06:36:48 AM 25.6250 -80.1050 161° South 299 344 8,000 2,550 Climbing FlightAware ADS-B
Wed 06:37:03 AM 25.6040 -80.0980 163° South 302 348 8,700 2,400 Climbing FlightAware ADS-B
Wed 06:37:28 AM 25.5730 -80.0870 162° South 305 351 9,600 1,846 Climbing FlightAware ADS-B
Wed 06:38:08 AM 25.5160 -80.0670 162° South 335 386 10,700 1,400 Climbing FlightAware ADS-B
Wed 06:38:58 AM 25.4340 -80.0370 162° South 384 442 11,700 1,840 Climbing FlightAware ADS-B
Wed 06:41:53 AM 25.1470 -79.8800 154° Southeast 426 490 17,600 1,743 Climbing FlightAware ADS-B
Wed 06:43:23 AM 25.0030 -79.7770 147° Southeast 437 503 19,400 1,862 Climbing FlightAware ADS-B
Wed 06:44:18 AM 24.8980 -79.7020 147° Southeast 447 514 22,100 1,875 Climbing FlightAware ADS-B
Wed 06:46:03 AM 24.7090 -79.5680 147° Southeast 463 533 24,400 890 Climbing FlightAware ADS-B
Wed 06:46:53 AM 24.6330 -79.5130 147° Southeast 463 533 24,400  Level FlightAware ADS-B
Wed 06:47:33 AM 24.5710 -79.4700 148° Southeast 463 533 24,400  Level FlightAware ADS-B
Wed 06:48:13 AM 24.5100 -79.4260 147° Southeast 463 533 24,400  Level FlightAware ADS-B
Wed 06:48:53 AM 24.4490 -79.3820 147° Southeast 463 533 24,400  Level FlightAware ADS-B
Wed 06:49:33 AM 24.3880 -79.3390 147° Southeast 463 533 24,400 37 Level FlightAware ADS-B
Wed 06:54:00 AM 23.9072 -79.0047 149° Southeast  Level FlightAware Approximate
Wed 06:55:00 AM 23.7978 -78.9318 148° Southeast  Level FlightAware Approximate
Wed 06:56:00 AM 23.6889 -78.8581 148° Southeast  Level FlightAware Approximate
Wed 06:57:00 AM 23.5800 -78.7845 148° Southeast  Level FlightAware Approximate
Wed 06:58:00 AM 23.4710 -78.7110 148° Southeast  Level FlightAware Approximate
Wed 06:59:00 AM 23.3620 -78.6377 148° Southeast  Level FlightAware Approximate
Wed 07:00:00 AM 23.2529 -78.5644 148° Southeast  Level FlightAware Approximate
Wed 07:01:00 AM 23.1439 -78.4913 148° Southeast  Level FlightAware Approximate
Wed 07:02:00 AM 23.0347 -78.4183 148° Southeast  Level FlightAware Approximate
Wed 07:03:00 AM 22.9256 -78.3454 148° Southeast  Level FlightAware Approximate
Wed 07:04:00 AM 22.8164 -78.2726 148° Southeast  Level FlightAware Approximate
Wed 07:05:00 AM 22.7072 -78.2000 148° Southeast  Level FlightAware Approximate
Wed 07:06:00 AM 22.5980 -78.1275 148° Southeast  Level FlightAware Approximate
Wed 07:07:00 AM 22.4887 -78.0550 149° Southeast  Level FlightAware Approximate
Wed 07:08:00 AM 22.3794 -77.9827 149° Southeast  Level FlightAware Approximate
Wed 07:09:00 AM 22.2701 -77.9105 149° Southeast  Level FlightAware Approximate
Wed 07:10:00 AM 22.1607 -77.8385 149° Southeast  Level FlightAware Approximate
Wed 07:11:00 AM 22.0513 -77.7665 149° Southeast  Level FlightAware Approximate
Wed 07:12:00 AM 21.9419 -77.6946 149° Southeast  Level FlightAware Approximate
Wed 07:13:00 AM 21.8324 -77.6229 149° Southeast  Level FlightAware Approximate
Wed 07:14:00 AM 21.7229 -77.5513 149° Southeast  Level FlightAware Approximate
Wed 07:15:00 AM 21.6134 -77.4797 149° Southeast  Level FlightAware Approximate
Wed 07:16:00 AM 21.5038 -77.4084 149° Southeast  Level FlightAware Approximate
Wed 07:17:00 AM 21.3939 -77.3377 149° Southeast  Level FlightAware Approximate
Wed 07:18:00 AM 21.2839 -77.2671 149° Southeast  Level FlightAware Approximate
Wed 07:19:00 AM 21.1739 -77.1966 149° Southeast  Level FlightAware Approximate
Wed 07:20:00 AM 21.0639 -77.1262 149° Southeast  Level FlightAware Approximate
Wed 07:21:00 AM 20.9538 -77.0560 149° Southeast  Level FlightAware Approximate
Wed 07:22:00 AM 20.8438 -76.9858 149° Southeast  Level FlightAware Approximate
Wed 07:23:00 AM 20.7337 -76.9157 149° Southeast  Level FlightAware Approximate
Wed 07:24:00 AM 20.6235 -76.8458 149° Southeast  Level FlightAware Approximate
Wed 07:25:00 AM 20.5134 -76.7759 149° Southeast  Level FlightAware Approximate
Wed 07:26:00 AM 20.4032 -76.7061 149° Southeast  Level FlightAware Approximate
Wed 07:27:00 AM 20.2930 -76.6365 149° Southeast  Level FlightAware Approximate
Wed 07:28:00 AM 20.1827 -76.5669 149° Southeast  Level FlightAware Approximate
Wed 07:29:00 AM 20.0724 -76.4974 149° Southeast  Level FlightAware Approximate
Wed 07:30:00 AM 19.9621 -76.4281 149° Southeast  Level FlightAware Approximate
Wed 07:31:00 AM 19.8518 -76.3588 149° Southeast  Level FlightAware Approximate
Wed 07:32:00 AM 19.7415 -76.2896 149° Southeast  Level FlightAware Approximate
Wed 07:33:00 AM 19.6311 -76.2205 149° Southeast  Level FlightAware Approximate
Wed 07:34:00 AM 19.5207 -76.1516 150° Southeast  Level FlightAware Approximate
Wed 07:35:00 AM 19.4102 -76.0827 150° Southeast  Level FlightAware Approximate
Wed 07:36:00 AM 19.2998 -76.0139 150° Southeast  Level FlightAware Approximate
Wed 07:37:00 AM 19.1893 -75.9452 150° Southeast  Level FlightAware Approximate
Wed 07:38:00 AM 19.0788 -75.8765 150° Southeast  Level FlightAware Approximate
Wed 07:39:00 AM 18.9683 -75.8080 150° Southeast  Level FlightAware Approximate
Wed 07:40:00 AM 18.8577 -75.7396 150° Southeast  Level FlightAware Approximate
Wed 07:41:00 AM 18.7472 -75.6711 149° Southeast  Level FlightAware Approximate
Wed 07:42:00 AM 18.6369 -75.6022 149° Southeast  Level FlightAware Approximate
Wed 07:43:00 AM 18.5267 -75.5334 149° Southeast  Level FlightAware Approximate
Wed 07:44:00 AM 18.4164 -75.4647 149° Southeast  Level FlightAware Approximate
Wed 07:45:00 AM 18.3061 -75.3960 149° Southeast  Level FlightAware Approximate
Wed 07:46:00 AM 18.1957 -75.3275 149° Southeast  Level FlightAware Approximate
Wed 07:47:00 AM 18.0854 -75.2590 149° Southeast  Level FlightAware Approximate
Wed 07:48:00 AM 17.9750 -75.1906 149° Southeast  Level FlightAware Approximate
Wed 07:49:00 AM 17.8645 -75.1223 150° Southeast  Level FlightAware Approximate
Wed 07:50:00 AM 17.7541 -75.0541 150° Southeast  Level FlightAware Approximate
Wed 07:51:00 AM 17.6437 -74.9860 150° Southeast  Level FlightAware Approximate
Wed 07:52:00 AM 17.5332 -74.9179 150° Southeast  Level FlightAware Approximate
Wed 07:53:00 AM 17.4227 -74.8500 150° Southeast  Level FlightAware Approximate
Wed 07:54:00 AM 17.3121 -74.7821 150° Southeast  Level FlightAware Approximate
Wed 07:55:00 AM 17.2016 -74.7143 150° Southeast  Level FlightAware Approximate
Wed 07:56:00 AM 17.0910 -74.6466 150° Southeast  Level FlightAware Approximate
Wed 07:57:00 AM 16.9804 -74.5789 150° Southeast  Level FlightAware Approximate
Wed 07:58:00 AM 16.8698 -74.5114 150° Southeast  Level FlightAware Approximate
Wed 07:59:00 AM 16.7591 -74.4439 150° Southeast  Level FlightAware Approximate
Wed 08:00:00 AM 16.6485 -74.3765 150° Southeast  Level FlightAware Approximate
Wed 08:01:00 AM 16.5378 -74.3092 150° Southeast  Level FlightAware Approximate
Wed 08:02:00 AM 16.4271 -74.2419 150° Southeast  Level FlightAware Approximate
Wed 08:03:00 AM 16.3164 -74.1748 150° Southeast  Level FlightAware Approximate
Wed 08:04:00 AM 16.2056 -74.1077 150° Southeast  Level FlightAware Approximate
Wed 08:05:00 AM 16.0948 -74.0406 150° Southeast  Level FlightAware Approximate
Wed 08:06:00 AM 15.9840 -73.9738 150° Southeast  Level FlightAware Approximate
Wed 08:07:00 AM 15.8729 -73.9074 150° Southeast  Level FlightAware Approximate
Wed 08:08:00 AM 15.7618 -73.8411 150° Southeast  Level FlightAware Approximate
Wed 08:09:00 AM 15.6506 -73.7749 150° Southeast  Level FlightAware Approximate
Wed 08:10:00 AM 15.5395 -73.7088 150° Southeast  Level FlightAware Approximate
Wed 08:11:00 AM 15.4283 -73.6427 150° Southeast  Level FlightAware Approximate
Wed 08:12:00 AM 15.3171 -73.5767 150° Southeast  Level FlightAware Approximate
Wed 08:13:00 AM 15.2059 -73.5108 150° Southeast  Level FlightAware Approximate
Wed 08:14:00 AM 15.0946 -73.4449 150° Southeast  Level FlightAware Approximate
Wed 08:15:00 AM 14.9834 -73.3791 150° Southeast  Level FlightAware Approximate
Wed 08:16:00 AM 14.8721 -73.3134 150° Southeast  Level FlightAware Approximate
Wed 08:17:00 AM 14.7608 -73.2478 150° Southeast  Level FlightAware Approximate
Wed 08:18:00 AM 14.6495 -73.1822 150° Southeast  Level FlightAware Approximate
Wed 08:19:00 AM 14.5382 -73.1167 150° Southeast  Level FlightAware Approximate
Wed 08:20:00 AM 14.4268 -73.0512 150° Southeast  Level FlightAware Approximate
Wed 08:21:00 AM 14.3155 -72.9858 150° Southeast  Level FlightAware Approximate
Wed 08:22:00 AM 14.2041 -72.9205 150° Southeast  Level FlightAware Approximate
Wed 08:23:00 AM 14.0927 -72.8552 150° Southeast  Level FlightAware Approximate
Wed 08:24:00 AM 13.9813 -72.7900 150° Southeast  Level FlightAware Approximate
Wed 08:25:00 AM 13.8698 -72.7249 150° Southeast  Level FlightAware Approximate
Wed 08:26:00 AM 13.7584 -72.6599 150° Southeast  Level FlightAware Approximate
Wed 08:27:00 AM 13.6469 -72.5948 150° Southeast  Level FlightAware Approximate
Wed 08:28:00 AM 13.5354 -72.5299 150° Southeast  Level FlightAware Approximate
Wed 08:29:00 AM 13.4239 -72.4650 150° Southeast  Level FlightAware Approximate
Wed 08:30:00 AM 13.3124 -72.4002 151° Southeast  Level FlightAware Approximate
Wed 08:31:00 AM 13.2010 -72.3352 150° Southeast  Level FlightAware Approximate
Wed 08:32:00 AM 13.0897 -72.2701 150° Southeast  Level FlightAware Approximate
Wed 08:33:00 AM 12.9783 -72.2050 150° Southeast  Level FlightAware Approximate
Wed 08:34:00 AM 12.8670 -72.1400 150° Southeast  Level FlightAware Approximate
Wed 08:35:00 AM 12.7556 -72.0751 150° Southeast  Level FlightAware Approximate
Wed 08:36:00 AM 12.6442 -72.0102 150° Southeast  Level FlightAware Approximate
Wed 08:37:00 AM 12.5328 -71.9454 150° Southeast  Level FlightAware Approximate
Wed 08:38:00 AM 12.4213 -71.8807 150° Southeast  Level FlightAware Approximate
Wed 08:39:00 AM 12.3099 -71.8160 150° Southeast  Level FlightAware Approximate
Wed 08:40:00 AM 12.1984 -71.7513 150° Southeast  Level FlightAware Approximate
Wed 08:41:00 AM 12.0870 -71.6867 150° Southeast  Level FlightAware Approximate
Wed 08:42:00 AM 11.9755 -71.6222 150° Southeast  Level FlightAware Approximate
Wed 08:43:00 AM 11.8640 -71.5577 150° Southeast  Level FlightAware Approximate
Wed 08:44:00 AM 11.7524 -71.4933 151° Southeast  Level FlightAware Approximate
Wed 08:45:00 AM 11.6409 -71.4289 151° Southeast  Level FlightAware Approximate
Wed 08:46:00 AM 11.5294 -71.3646 151° Southeast  Level FlightAware Approximate
Wed 08:47:00 AM 11.4178 -71.3003 151° Southeast  Level FlightAware Approximate
Wed 08:48:00 AM 11.3062 -71.2361 151° Southeast  Level FlightAware Approximate
Wed 08:49:00 AM 11.1946 -71.1719 151° Southeast  Level FlightAware Approximate
Wed 08:50:00 AM 11.0830 -71.1077 151° Southeast  Level FlightAware Approximate
Wed 08:51:00 AM 10.9714 -71.0437 151° Southeast  Level FlightAware Approximate
Wed 08:52:00 AM 10.8598 -70.9796 151° Southeast  Level FlightAware Approximate
Wed 08:53:00 AM 10.7481 -70.9157 151° Southeast  Level FlightAware Approximate
Wed 08:54:00 AM 10.6365 -70.8517 151° Southeast  Level FlightAware Approximate
Wed 08:55:00 AM 10.5248 -70.7878 151° Southeast  Level FlightAware Approximate
Wed 08:56:00 AM 10.4131 -70.7240 151° Southeast  Level FlightAware Approximate
Wed 08:57:00 AM 10.3014 -70.6602 151° Southeast  Level FlightAware Approximate
Wed 08:58:00 AM 10.1897 -70.5965 151° Southeast  Level FlightAware Approximate
Wed 08:59:00 AM 10.0780 -70.5327 151° Southeast  Level FlightAware Approximate
Wed 09:00:00 AM 9.9663 -70.4691 151° Southeast  Level FlightAware Approximate
Wed 09:01:00 AM 9.8545 -70.4055 151° Southeast  Level FlightAware Approximate
Wed 09:02:00 AM 9.7428 -70.3419 151° Southeast  Level FlightAware Approximate
Wed 09:03:00 AM 9.6310 -70.2784 151° Southeast  Level FlightAware Approximate
Wed 09:04:00 AM 9.5192 -70.2149 151° Southeast  Level FlightAware Approximate
Wed 09:05:00 AM 9.4074 -70.1514 151° Southeast  Level FlightAware Approximate
Wed 09:06:00 AM 9.2956 -70.0880 151° Southeast  Level FlightAware Approximate
Wed 09:07:00 AM 9.1838 -70.0246 151° Southeast  Level FlightAware Approximate
Wed 09:08:00 AM 9.0720 -69.9613 151° Southeast  Level FlightAware Approximate
Wed 09:09:00 AM 8.9601 -69.8980 151° Southeast  Level FlightAware Approximate
Wed 09:10:00 AM 8.8483 -69.8348 151° Southeast  Level FlightAware Approximate
Wed 09:11:00 AM 8.7364 -69.7716 151° Southeast  Level FlightAware Approximate
Wed 09:12:00 AM 8.6246 -69.7084 151° Southeast  Level FlightAware Approximate
Wed 09:13:00 AM 8.5127 -69.6453 151° Southeast  Level FlightAware Approximate
Wed 09:14:00 AM 8.4008 -69.5822 151° Southeast  Level FlightAware Approximate
Wed 09:15:00 AM 8.2889 -69.5191 151° Southeast  Level FlightAware Approximate
Wed 09:16:00 AM 8.1770 -69.4561 151° Southeast  Level FlightAware Approximate
Wed 09:17:00 AM 8.0651 -69.3931 151° Southeast  Level FlightAware Approximate
Wed 09:18:00 AM 7.9531 -69.3301 151° Southeast  Level FlightAware Approximate
Wed 09:19:00 AM 7.8412 -69.2672 151° Southeast  Level FlightAware Approximate
Wed 09:20:00 AM 7.7292 -69.2043 151° Southeast  Level FlightAware Approximate
Wed 09:21:00 AM 7.6173 -69.1415 151° Southeast  Level FlightAware Approximate
Wed 09:22:00 AM 7.5053 -69.0786 151° Southeast  Level FlightAware Approximate
Wed 09:23:00 AM 7.3934 -69.0158 151° Southeast  Level FlightAware Approximate
Wed 09:24:00 AM 7.2814 -68.9531 151° Southeast  Level FlightAware Approximate
Wed 09:25:00 AM 7.1694 -68.8904 151° Southeast  Level FlightAware Approximate
Wed 09:26:00 AM 7.0574 -68.8277 151° Southeast  Level FlightAware Approximate
Wed 09:27:00 AM 6.9454 -68.7650 151° Southeast  Level FlightAware Approximate
Wed 09:28:00 AM 6.8334 -68.7024 151° Southeast  Level FlightAware Approximate
Wed 09:29:00 AM 6.7213 -68.6398 151° Southeast  Level FlightAware Approximate
Wed 09:30:00 AM 6.6093 -68.5772 151° Southeast  Level FlightAware Approximate
Wed 09:31:00 AM 6.4973 -68.5146 151° Southeast  Level FlightAware Approximate
Wed 09:32:00 AM 6.3852 -68.4521 151° Southeast  Level FlightAware Approximate
Wed 09:33:00 AM 6.2731 -68.3896 151° Southeast  Level FlightAware Approximate
Wed 09:34:00 AM 6.1611 -68.3272 151° Southeast  Level FlightAware Approximate
Wed 09:35:00 AM 6.0490 -68.2647 151° Southeast  Level FlightAware Approximate
Wed 09:36:00 AM 5.9369 -68.2023 151° Southeast  Level FlightAware Approximate
Wed 09:37:00 AM 5.8249 -68.1399 151° Southeast  Level FlightAware Approximate
Wed 09:38:00 AM 5.7128 -68.0776 151° Southeast  Level FlightAware Approximate
Wed 09:39:00 AM 5.6007 -68.0152 151° Southeast  Level FlightAware Approximate
Wed 09:40:00 AM 5.4886 -67.9529 151° Southeast  Level FlightAware Approximate
Wed 09:41:00 AM 5.3765 -67.8906 151° Southeast  Level FlightAware Approximate
Wed 09:42:00 AM 5.2643 -67.8285 151° Southeast  Level FlightAware Approximate
Wed 09:43:00 AM 5.1521 -67.7664 151° Southeast  Level FlightAware Approximate
Wed 09:44:00 AM 5.0399 -67.7043 151° Southeast  Level FlightAware Approximate
Wed 09:45:00 AM 4.9277 -67.6423 151° Southeast  Level FlightAware Approximate
Wed 09:46:00 AM 4.8155 -67.5802 151° Southeast  Level FlightAware Approximate
Wed 09:47:00 AM 4.7032 -67.5182 151° Southeast  Level FlightAware Approximate
Wed 09:48:00 AM 4.5910 -67.4562 151° Southeast  Level FlightAware Approximate
Wed 09:49:00 AM 4.4788 -67.3942 151° Southeast  Level FlightAware Approximate
Wed 09:50:00 AM 4.3665 -67.3323 151° Southeast  Level FlightAware Approximate
Wed 09:51:00 AM 4.2543 -67.2704 151° Southeast  Level FlightAware Approximate
Wed 09:52:00 AM 4.1420 -67.2085 151° Southeast  Level FlightAware Approximate
Wed 09:53:00 AM 4.0297 -67.1466 151° Southeast  Level FlightAware Approximate
Wed 09:54:00 AM 3.9175 -67.0847 151° Southeast  Level FlightAware Approximate
Wed 09:55:00 AM 3.8052 -67.0228 151° Southeast  Level FlightAware Approximate
Wed 09:56:00 AM 3.6929 -66.9610 151° Southeast  Level FlightAware Approximate
Wed 09:57:00 AM 3.5806 -66.8991 151° Southeast  Level FlightAware Approximate
Wed 09:58:00 AM 3.4684 -66.8373 151° Southeast  Level FlightAware Approximate
Wed 09:59:00 AM 3.3561 -66.7755 151° Southeast  Level FlightAware Approximate
Wed 10:00:00 AM 3.2438 -66.7137 151° Southeast  Level FlightAware Approximate
Wed 10:01:00 AM 3.1315 -66.6520 151° Southeast  Level FlightAware Approximate
Wed 10:02:00 AM 3.0192 -66.5902 151° Southeast  Level FlightAware Approximate
Wed 10:03:00 AM 2.9069 -66.5285 151° Southeast  Level FlightAware Approximate
Wed 10:04:00 AM 2.7946 -66.4667 151° Southeast  Level FlightAware Approximate
Wed 10:05:00 AM 2.6823 -66.4050 151° Southeast  Level FlightAware Approximate
Wed 10:06:00 AM 2.5700 -66.3433 151° Southeast  Level FlightAware Approximate
Wed 10:07:00 AM 2.4577 -66.2816 151° Southeast  Level FlightAware Approximate
Wed 10:08:00 AM 2.3453 -66.2199 151° Southeast  Level FlightAware Approximate
Wed 10:09:00 AM 2.2330 -66.1582 151° Southeast  Level FlightAware Approximate
Wed 10:10:00 AM 2.1207 -66.0965 151° Southeast  Level FlightAware Approximate
Wed 10:11:00 AM 2.0084 -66.0349 151° Southeast  Level FlightAware Approximate
Wed 10:12:00 AM 1.8960 -65.9732 151° Southeast  Level FlightAware Approximate
Wed 10:13:00 AM 1.7837 -65.9116 151° Southeast  Level FlightAware Approximate
Wed 10:14:00 AM 1.6714 -65.8499 151° Southeast  Level FlightAware Approximate
Wed 10:15:00 AM 1.5591 -65.7883 151° Southeast  Level FlightAware Approximate
Wed 10:16:00 AM 1.4467 -65.7267 151° Southeast  Level FlightAware Approximate
Wed 10:17:00 AM 1.3344 -65.6651 151° Southeast  Level FlightAware Approximate
Wed 10:18:00 AM 1.2220 -65.6034 151° Southeast  Level FlightAware Approximate
Wed 10:19:00 AM 1.1097 -65.5418 151° Southeast  Level FlightAware Approximate
Wed 10:20:00 AM 0.9974 -65.4802 151° Southeast  Level FlightAware Approximate
Wed 10:21:00 AM 0.8850 -65.4186 151° Southeast  Level FlightAware Approximate
Wed 10:22:00 AM 0.7727 -65.3570 151° Southeast  Level FlightAware Approximate
Wed 10:23:00 AM 0.6603 -65.2954 151° Southeast  Level FlightAware Approximate
Wed 10:24:00 AM 0.5480 -65.2339 151° Southeast  Level FlightAware Approximate
Wed 10:25:00 AM 0.4356 -65.1723 151° Southeast  Level FlightAware Approximate
Wed 10:26:00 AM 0.3233 -65.1107 151° Southeast  Level FlightAware Approximate
Wed 10:27:00 AM 0.2110 -65.0491 151° Southeast  Level FlightAware Approximate
Wed 10:28:00 AM 0.0986 -64.9875 151° Southeast  Level FlightAware Approximate
Wed 10:29:00 AM -0.0137 -64.9259 151° Southeast  Level FlightAware Approximate
Wed 10:30:00 AM -0.1261 -64.8644 151° Southeast  Level FlightAware Approximate
Wed 10:31:00 AM -0.2385 -64.8028 151° Southeast  Level FlightAware Approximate
Wed 10:32:00 AM -0.3508 -64.7412 151° Southeast  Level FlightAware Approximate
Wed 10:33:00 AM -0.4631 -64.6796 151° Southeast  Level FlightAware Approximate
Wed 10:34:00 AM -0.5755 -64.6180 151° Southeast  Level FlightAware Approximate
Wed 10:35:00 AM -0.6878 -64.5564 151° Southeast  Level FlightAware Approximate
Wed 10:36:00 AM -0.8002 -64.4948 151° Southeast  Level FlightAware Approximate
Wed 10:37:00 AM -0.9125 -64.4332 151° Southeast  Level FlightAware Approximate
Wed 10:38:00 AM -1.0249 -64.3716 151° Southeast  Level FlightAware Approximate
Wed 10:39:00 AM -1.1372 -64.3100 151° Southeast  Level FlightAware Approximate
Wed 10:40:00 AM -1.2495 -64.2484 151° Southeast  Level FlightAware Approximate
Wed 10:41:00 AM -1.3619 -64.1868 151° Southeast  Level FlightAware Approximate
Wed 10:42:00 AM -1.4742 -64.1252 151° Southeast  Level FlightAware Approximate
Wed 10:43:00 AM -1.5865 -64.0635 151° Southeast  Level FlightAware Approximate
Wed 10:43:28 AM -1.9870 -61.3470 151° Southeast 472 543 33,000  Level FlightAware ADS-B
Wed 10:44:00 AM -1.6989 -64.0019 151° Southeast  Level FlightAware Approximate
Wed 10:44:13 AM -2.0710 -61.2910 146° Southeast 472 543 33,000  Level FlightAware ADS-B
Wed 10:44:53 AM -2.1430 -61.2430 146° Southeast 471 542 33,000  Level FlightAware ADS-B
Wed 10:45:33 AM -2.2160 -61.1940 146° Southeast 473 544 33,000  Level FlightAware ADS-B
Wed 10:46:18 AM -2.2970 -61.1410 147° Southeast 472 543 33,000  Level FlightAware ADS-B
Wed 10:46:58 AM -2.3710 -61.0920 147° Southeast 473 544 33,000  Level FlightAware ADS-B
Wed 10:47:43 AM -2.4550 -61.0360 146° Southeast 475 547 33,000  Level FlightAware ADS-B
Wed 10:48:23 AM -2.5290 -60.9870 147° Southeast 475 547 33,000  Level FlightAware ADS-B
Wed 10:49:08 AM -2.6100 -60.9330 146° Southeast 476 548 33,000  Level FlightAware ADS-B
Wed 10:49:48 AM -2.6790 -60.8870 146° Southeast 477 549 33,000  Level FlightAware ADS-B
Wed 10:50:28 AM -2.7570 -60.8350 146° Southeast 478 550 33,000  Level FlightAware ADS-B
Wed 10:51:13 AM -2.8430 -60.7790 147° Southeast 478 550 33,000  Level FlightAware ADS-B
Wed 10:51:53 AM -2.9160 -60.7310 147° Southeast 479 551 33,000  Level FlightAware ADS-B
Wed 10:52:38 AM -2.9980 -60.6770 147° Southeast 479 551 33,000  Level FlightAware ADS-B
Wed 10:53:18 AM -3.0730 -60.6280 147° Southeast 479 551 33,000  Level FlightAware ADS-B
Wed 10:53:58 AM -3.1470 -60.5790 147° Southeast 480 552 33,000  Level FlightAware ADS-B
Wed 10:54:43 AM -3.2300 -60.5250 147° Southeast 479 551 33,000  Level FlightAware ADS-B
Wed 10:55:23 AM -3.3050 -60.4750 146° Southeast 480 552 33,000  Level FlightAware ADS-B
Wed 10:56:08 AM -3.3850 -60.4230 147° Southeast 479 551 33,000  Level FlightAware ADS-B
Wed 10:56:48 AM -3.4570 -60.3760 147° Southeast 478 550 33,000  Level FlightAware ADS-B
Wed 10:57:28 AM -3.5360 -60.3240 147° Southeast 479 551 33,000  Level FlightAware ADS-B
Wed 10:58:13 AM -3.6230 -60.2660 146° Southeast 479 551 33,000  Level FlightAware ADS-B
Wed 10:58:53 AM -3.6950 -60.2190 147° Southeast 479 551 33,000  Level FlightAware ADS-B
Wed 10:59:38 AM -3.7790 -60.1650 147° Southeast 478 550 33,000  Level FlightAware ADS-B
Wed 11:00:13 AM -3.8390 -60.1250 146° Southeast 478 550 33,000  Level FlightAware ADS-B
Wed 11:01:03 AM -3.9170 -60.0720 146° Southeast 478 550 33,000  Level FlightAware ADS-B
Wed 11:01:43 AM -3.9790 -60.0300 146° Southeast 478 550 33,000  Level FlightAware ADS-B
Wed 11:02:23 AM -4.0410 -59.9880 146° Southeast 478 550 33,000  Level FlightAware ADS-B
Wed 11:03:03 AM -4.1040 -59.9460 146° Southeast 478 550 33,000  Level FlightAware ADS-B
Wed 11:03:53 AM -4.1820 -59.8930 146° Southeast 478 550 33,000  Level FlightAware ADS-B
Wed 11:04:33 AM -4.2440 -59.8510 146° Southeast 478 550 33,000  Level FlightAware ADS-B
Wed 11:05:13 AM -4.3060 -59.8090 146° Southeast 478 550 33,000  Level FlightAware ADS-B
Wed 11:05:53 AM -4.3690 -59.7660 146° Southeast 478 550 33,000  Level FlightAware ADS-B
Wed 11:06:33 AM -4.4310 -59.7240 146° Southeast 478 550 33,000  Level FlightAware ADS-B
Wed 11:07:23 AM -4.5090 -59.6720 146° Southeast 478 550 33,000  Level FlightAware ADS-B
Wed 11:08:03 AM -4.5710 -59.6290 145° Southeast 478 550 33,000  Level FlightAware ADS-B
Wed 11:08:43 AM -4.6330 -59.5870 146° Southeast 478 550 33,000  Level FlightAware ADS-B
Wed 11:09:23 AM -4.6960 -59.5450 146° Southeast 478 550 33,000 Level FlightAware ADS-B
Wed 11:12:00 AM -5.0011 -59.4056 156° South  Level Estimated
Wed 11:13:00 AM -5.1177 -59.3523 156° South  Level Estimated
Wed 11:14:00 AM -5.2343 -59.2990 156° South  Level Estimated
Wed 11:15:00 AM -5.3509 -59.2456 156° South  Level Estimated
Wed 11:16:00 AM -5.4675 -59.1922 156° South  Level Estimated
Wed 11:17:00 AM -5.5840 -59.1388 155° Southeast  Level Estimated
Wed 11:18:00 AM -5.7006 -59.0854 155° Southeast  Level Estimated
Wed 11:19:00 AM -5.8172 -59.0320 155° Southeast  Level Estimated
Wed 11:20:00 AM -5.9337 -58.9785 155° Southeast  Level Estimated
Wed 11:21:00 AM -6.0503 -58.9251 155° Southeast  Level Estimated
Wed 11:22:00 AM -6.1669 -58.8716 155° Southeast  Level Estimated
Wed 11:23:00 AM -6.2834 -58.8180 155° Southeast  Level Estimated
Wed 11:24:00 AM -6.3999 -58.7645 155° Southeast  Level Estimated
Wed 11:25:00 AM -6.5165 -58.7109 155° Southeast  Level Estimated
Wed 11:26:00 AM -6.6330 -58.6573 155° Southeast  Level Estimated
Wed 11:27:00 AM -6.7495 -58.6037 155° Southeast  Level Estimated
Wed 11:28:00 AM -6.8660 -58.5500 155° Southeast  Level Estimated
Wed 11:29:00 AM -6.9826 -58.4964 155° Southeast  Level Estimated
Wed 11:30:00 AM -7.0991 -58.4427 155° Southeast  Level Estimated
Wed 11:31:00 AM -7.2156 -58.3889 155° Southeast  Level Estimated
Wed 11:32:00 AM -7.3320 -58.3352 155° Southeast  Level Estimated
Wed 11:33:00 AM -7.4485 -58.2814 155° Southeast  Level Estimated
Wed 11:34:00 AM -7.5650 -58.2276 155° Southeast  Level Estimated
Wed 11:35:00 AM -7.6815 -58.1737 155° Southeast  Level Estimated
Wed 11:36:00 AM -7.7980 -58.1199 155° Southeast  Level Estimated
Wed 11:37:00 AM -7.9144 -58.0660 155° Southeast  Level Estimated
Wed 11:38:00 AM -8.0309 -58.0120 155° Southeast  Level Estimated
Wed 11:39:00 AM -8.1473 -57.9581 155° Southeast  Level Estimated
Wed 11:40:00 AM -8.2638 -57.9041 155° Southeast  Level Estimated
Wed 11:41:00 AM -8.3802 -57.8500 155° Southeast  Level Estimated
Wed 11:42:00 AM -8.4966 -57.7960 155° Southeast  Level Estimated
Wed 11:43:00 AM -8.6130 -57.7419 155° Southeast  Level Estimated
Wed 11:44:00 AM -8.7294 -57.6878 155° Southeast  Level Estimated
Wed 11:45:00 AM -8.8458 -57.6336 155° Southeast  Level Estimated
Wed 11:46:00 AM -8.9622 -57.5794 155° Southeast  Level Estimated
Wed 11:47:00 AM -9.0786 -57.5252 155° Southeast  Level Estimated
Wed 11:48:00 AM -9.1950 -57.4709 155° Southeast  Level Estimated
Wed 11:49:00 AM -9.3114 -57.4166 155° Southeast  Level Estimated
Wed 11:50:00 AM -9.4277 -57.3623 155° Southeast  Level Estimated
Wed 11:51:00 AM -9.5441 -57.3079 155° Southeast  Level Estimated
Wed 11:52:00 AM -9.6604 -57.2535 155° Southeast  Level Estimated
Wed 11:53:00 AM -9.7768 -57.1991 155° Southeast  Level Estimated
Wed 11:54:00 AM -9.8931 -57.1446 155° Southeast  Level Estimated
Wed 11:55:00 AM -10.0094 -57.0900 155° Southeast  Level Estimated
Wed 11:56:00 AM -10.1257 -57.0355 155° Southeast  Level Estimated
Wed 11:57:00 AM -10.2420 -56.9809 155° Southeast  Level Estimated
Wed 11:58:00 AM -10.3583 -56.9262 155° Southeast  Level Estimated
Wed 11:59:00 AM -10.4746 -56.8716 155° Southeast  Level Estimated
Wed 12:00:00 PM -10.5909 -56.8168 155° Southeast  Level Estimated
Wed 12:01:00 PM -10.7071 -56.7621 155° Southeast  Level Estimated
Wed 12:02:00 PM -10.8234 -56.7072 155° Southeast  Level Estimated
Wed 12:03:00 PM -10.9396 -56.6524 155° Southeast  Level Estimated
Wed 12:04:00 PM -11.0559 -56.5975 155° Southeast  Level Estimated
Wed 12:05:00 PM -11.1721 -56.5426 155° Southeast  Level Estimated
Wed 12:06:00 PM -11.2883 -56.4876 155° Southeast  Level Estimated
Wed 12:07:00 PM -11.4045 -56.4326 155° Southeast  Level Estimated
Wed 12:08:00 PM -11.5207 -56.3775 155° Southeast  Level Estimated
Wed 12:09:00 PM -11.6369 -56.3224 155° Southeast  Level Estimated
Wed 12:10:00 PM -11.7530 -56.2672 155° Southeast  Level Estimated
Wed 12:11:00 PM -11.8692 -56.2120 155° Southeast  Level Estimated
Wed 12:12:00 PM -11.9853 -56.1567 155° Southeast  Level Estimated
Wed 12:13:00 PM -12.1015 -56.1014 155° Southeast  Level Estimated
Wed 12:14:00 PM -12.2176 -56.0461 155° Southeast  Level Estimated
Wed 12:15:00 PM -12.3337 -55.9907 155° Southeast  Level Estimated
Wed 12:16:00 PM -12.4499 -55.9352 155° Southeast  Level Estimated
Wed 12:17:00 PM -12.5660 -55.8797 155° Southeast  Level Estimated
Wed 12:18:00 PM -12.6820 -55.8242 155° Southeast  Level Estimated
Wed 12:19:00 PM -12.7981 -55.7686 155° Southeast  Level Estimated
Wed 12:20:00 PM -12.9142 -55.7129 155° Southeast  Level Estimated
Wed 12:21:00 PM -13.0302 -55.6572 155° Southeast  Level Estimated
Wed 12:22:00 PM -13.1463 -55.6015 155° Southeast  Level Estimated
Wed 12:23:00 PM -13.2623 -55.5457 155° Southeast  Level Estimated
Wed 12:24:00 PM -13.3783 -55.4898 155° Southeast  Level Estimated
Wed 12:25:00 PM -13.4943 -55.4339 155° Southeast  Level Estimated
Wed 12:26:00 PM -13.6103 -55.3779 155° Southeast  Level Estimated
Wed 12:27:00 PM -13.7263 -55.3219 155° Southeast  Level Estimated
Wed 12:28:00 PM -13.8422 -55.2658 155° Southeast  Level Estimated
Wed 12:29:00 PM -13.9582 -55.2097 155° Southeast  Level Estimated
Wed 12:30:00 PM -14.0741 -55.1535 155° Southeast  Level Estimated
Wed 12:31:00 PM -14.1901 -55.0972 155° Southeast  Level Estimated
Wed 12:32:00 PM -14.3060 -55.0409 155° Southeast  Level Estimated
Wed 12:33:00 PM -14.4219 -54.9846 155° Southeast  Level Estimated
Wed 12:34:00 PM -14.5378 -54.9281 155° Southeast  Level Estimated
Wed 12:35:00 PM -14.6536 -54.8717 155° Southeast  Level Estimated
Wed 12:36:00 PM -14.7695 -54.8151 155° Southeast  Level Estimated
Wed 12:37:00 PM -14.8853 -54.7585 155° Southeast  Level Estimated
Wed 12:38:00 PM -15.0012 -54.7019 155° Southeast  Level Estimated
Wed 12:39:00 PM -15.1170 -54.6451 155° Southeast  Level Estimated
Wed 12:40:00 PM -15.2328 -54.5883 155° Southeast  Level Estimated
Wed 12:41:00 PM -15.3486 -54.5315 155° Southeast  Level Estimated
Wed 12:42:00 PM -15.4643 -54.4746 155° Southeast  Level Estimated
Wed 12:43:00 PM -15.5801 -54.4176 155° Southeast  Level Estimated
Wed 12:44:00 PM -15.6959 -54.3606 155° Southeast  Level Estimated
Wed 12:45:00 PM -15.8116 -54.3035 155° Southeast  Level Estimated
Wed 12:46:00 PM -15.9273 -54.2463 155° Southeast  Level Estimated
Wed 12:47:00 PM -16.0430 -54.1890 155° Southeast  Level Estimated
Wed 12:48:00 PM -16.1587 -54.1317 155° Southeast  Level Estimated
Wed 12:49:00 PM -16.2744 -54.0744 155° Southeast  Level Estimated
Wed 12:50:00 PM -16.3900 -54.0169 155° Southeast  Level Estimated
Wed 12:51:00 PM -16.5056 -53.9594 155° Southeast  Level Estimated
Wed 12:52:00 PM -16.6213 -53.9018 154° Southeast  Level Estimated
Wed 12:53:00 PM -16.7369 -53.8442 154° Southeast  Level Estimated
Wed 12:54:00 PM -16.8525 -53.7865 154° Southeast  Level Estimated
Wed 12:55:00 PM -16.9681 -53.7287 154° Southeast  Level Estimated
Wed 12:56:00 PM -17.0836 -53.6708 154° Southeast  Level Estimated
Wed 12:57:00 PM -17.1992 -53.6129 154° Southeast  Level Estimated
Wed 12:58:00 PM -17.3147 -53.5549 154° Southeast  Level Estimated
Wed 12:59:00 PM -17.4302 -53.4968 154° Southeast  Level Estimated
Wed 01:00:00 PM -17.5457 -53.4387 154° Southeast  Level Estimated
Wed 01:01:00 PM -17.6612 -53.3805 154° Southeast  Level Estimated
Wed 01:02:00 PM -17.7766 -53.3222 154° Southeast  Level Estimated
Wed 01:03:00 PM -17.8921 -53.2638 154° Southeast  Level Estimated
Wed 01:04:00 PM -18.0075 -53.2053 154° Southeast  Level Estimated
Wed 01:05:00 PM -18.1229 -53.1468 154° Southeast  Level Estimated
Wed 01:06:00 PM -18.2383 -53.0882 154° Southeast  Level Estimated
Wed 01:07:00 PM -18.3536 -53.0295 154° Southeast  Level Estimated
Wed 01:08:00 PM -18.4690 -52.9708 154° Southeast  Level Estimated
Wed 01:09:00 PM -18.5843 -52.9119 154° Southeast  Level Estimated
Wed 01:10:00 PM -18.6996 -52.8530 154° Southeast  Level Estimated
Wed 01:11:00 PM -18.8150 -52.7940 154° Southeast  Level Estimated
Wed 01:12:00 PM -18.9302 -52.7350 154° Southeast  Level Estimated
Wed 01:13:00 PM -19.0455 -52.6758 154° Southeast  Level Estimated
Wed 01:14:00 PM -19.1607 -52.6166 154° Southeast  Level Estimated
Wed 01:15:00 PM -19.2759 -52.5572 154° Southeast  Level Estimated
Wed 01:16:00 PM -19.3911 -52.4978 154° Southeast  Level Estimated
Wed 01:17:00 PM -19.5063 -52.4383 154° Southeast  Level Estimated
Wed 01:18:00 PM -19.6215 -52.3787 154° Southeast  Level Estimated
Wed 01:19:00 PM -19.7366 -52.3191 154° Southeast  Level Estimated
Wed 01:20:00 PM -19.8518 -52.2593 154° Southeast  Level Estimated
Wed 01:21:00 PM -19.9669 -52.1995 154° Southeast  Level Estimated
Wed 01:22:00 PM -20.0820 -52.1396 154° Southeast  Level Estimated
Wed 01:23:00 PM -20.1970 -52.0796 154° Southeast  Level Estimated
Wed 01:24:00 PM -20.3121 -52.0195 154° Southeast  Level Estimated
Wed 01:25:00 PM -20.4271 -51.9593 154° Southeast  Level Estimated
Wed 01:26:00 PM -20.5421 -51.8990 154° Southeast  Level Estimated
Wed 01:27:00 PM -20.6571 -51.8386 154° Southeast  Level Estimated
Wed 01:28:00 PM -20.7720 -51.7782 154° Southeast  Level Estimated
Wed 01:29:00 PM -20.8870 -51.7176 154° Southeast  Level Estimated
Wed 01:30:00 PM -21.0019 -51.6570 154° Southeast  Level Estimated
Wed 01:31:00 PM -21.1168 -51.5962 154° Southeast  Level Estimated
Wed 01:32:00 PM -21.2317 -51.5354 154° Southeast  Level Estimated
Wed 01:33:00 PM -21.3465 -51.4745 154° Southeast  Level Estimated
Wed 01:33:18 PM -21.9220 -52.8960 154° Southeast 497 572 34,000  Level FlightAware ADS-B
Wed 01:33:58 PM -21.9820 -52.8200 130° Southeast 495 570 34,000  Level FlightAware ADS-B
Wed 01:34:00 PM -21.4613 -51.4135 154° Southeast  Level Estimated
Wed 01:34:38 PM -22.0420 -52.7460 131° Southeast 492 566 34,000  Level FlightAware ADS-B
Wed 01:35:23 PM -22.1100 -52.6600 130° Southeast 490 564 34,000  Level FlightAware ADS-B
Wed 01:36:03 PM -22.1700 -52.5860 131° Southeast 488 562 34,000  Level FlightAware ADS-B
Wed 01:36:48 PM -22.2350 -52.5040 131° Southeast 486 559 34,000  Level FlightAware ADS-B
Wed 01:37:28 PM -22.2930 -52.4310 131° Southeast 485 558 34,000  Level FlightAware ADS-B
Wed 01:38:13 PM -22.3590 -52.3470 130° Southeast 485 558 34,000  Level FlightAware ADS-B
Wed 01:38:53 PM -22.4180 -52.2730 131° Southeast 485 558 34,000  Level FlightAware ADS-B
Wed 01:39:33 PM -22.4770 -52.1980 130° Southeast 485 558 34,000  Level FlightAware ADS-B
Wed 01:40:18 PM -22.5410 -52.1180 131° Southeast 485 558 34,000  Level FlightAware ADS-B
Wed 01:40:58 PM -22.6000 -52.0440 131° Southeast 485 558 34,000  Level FlightAware ADS-B
Wed 01:41:43 PM -22.6670 -51.9590 131° Southeast 485 558 34,000  Level FlightAware ADS-B
Wed 01:42:23 PM -22.7240 -51.8860 130° Southeast 483 556 34,000  Level FlightAware ADS-B
Wed 01:43:03 PM -22.7830 -51.8120 131° Southeast 483 556 34,000  Level FlightAware ADS-B
Wed 01:43:48 PM -22.8460 -51.7320 131° Southeast 483 556 34,000  Level FlightAware ADS-B
Wed 01:44:28 PM -22.9060 -51.6570 131° Southeast 484 557 34,000  Level FlightAware ADS-B
Wed 01:45:13 PM -22.9730 -51.5730 131° Southeast 484 557 34,000  Level FlightAware ADS-B
Wed 01:45:53 PM -23.0320 -51.4990 131° Southeast 483 556 34,000  Level FlightAware ADS-B
Wed 01:46:33 PM -23.0900 -51.4270 131° Southeast 482 555 34,000  Level FlightAware ADS-B
Wed 01:47:08 PM -23.1400 -51.3630 130° Southeast 482 555 34,000  Level FlightAware ADS-B
Wed 01:47:53 PM -23.2060 -51.2800 131° Southeast 481 554 34,000  Level FlightAware ADS-B
Wed 01:48:33 PM -23.2650 -51.2070 131° Southeast 481 554 34,000  Level FlightAware ADS-B
Wed 01:49:18 PM -23.3280 -51.1290 131° Southeast 478 550 34,000  Level FlightAware ADS-B
Wed 01:49:48 PM -23.3770 -51.0800 137° Southeast 474 545 34,000  Level FlightAware ADS-B
Wed 01:50:28 PM -23.4470 -51.0190 141° Southeast 473 544 34,000  Level FlightAware ADS-B
Wed 01:51:08 PM -23.5150 -50.9600 141° Southeast 472 543 34,000  Level FlightAware ADS-B
Wed 01:51:48 PM -23.5820 -50.9020 142° Southeast 474 545 34,000  Level FlightAware ADS-B
Wed 01:52:33 PM -23.6590 -50.8340 141° Southeast 474 545 34,000  Level FlightAware ADS-B
Wed 01:53:18 PM -23.7370 -50.7660 141° Southeast 474 545 34,000  Level FlightAware ADS-B
Wed 01:53:58 PM -23.8070 -50.7060 142° Southeast 473 544 34,000  Level FlightAware ADS-B
Wed 01:54:38 PM -23.8750 -50.6460 141° Southeast 472 543 34,000  Level FlightAware ADS-B
Wed 01:55:18 PM -23.9430 -50.5860 141° Southeast 472 543 34,000  Level FlightAware ADS-B
Wed 01:56:03 PM -24.0220 -50.5170 141° Southeast 472 543 34,000  Level FlightAware ADS-B
Wed 01:56:43 PM -24.0890 -50.4580 141° Southeast 473 544 34,000  Level FlightAware ADS-B
Wed 01:57:28 PM -24.1640 -50.3910 141° Southeast 472 543 34,000  Level FlightAware ADS-B
Wed 01:58:08 PM -24.2340 -50.3300 142° Southeast 473 544 34,000  Level FlightAware ADS-B
Wed 01:58:53 PM -24.3120 -50.2610 141° Southeast 473 544 34,000 -141 Level FlightAware ADS-B
Wed 01:59:33 PM -24.3790 -50.2010 141° Southeast 473 544 33,800 -600 Descending FlightAware ADS-B
Wed 02:00:13 PM -24.4470 -50.1410 141° Southeast 471 542 33,200 -847 Descending FlightAware ADS-B
Wed 02:00:58 PM -24.5210 -50.0760 141° Southeast 468 539 32,600 -847 Descending FlightAware ADS-B
Wed 02:01:38 PM -24.5920 -50.0220 145° Southeast 455 524 32,000 -1,350 Descending FlightAware ADS-B
Wed 02:02:18 PM -24.6720 -49.9900 160° South 448 516 30,800 -1,906 Descending FlightAware ADS-B
Wed 02:03:03 PM -24.7620 -49.9600 163° South 445 512 29,300 -1,976 Descending FlightAware ADS-B
Wed 02:03:43 PM -24.8420 -49.9330 163° South 444 511 28,000 -1,875 Descending FlightAware ADS-B
Wed 02:04:23 PM -24.9160 -49.9070 162° South 443 510 26,800 -1,906 Descending FlightAware ADS-B
Wed 02:05:08 PM -25.0050 -49.8760 162° South 439 505 25,300 -1,906 Descending FlightAware ADS-B
Wed 02:05:48 PM -25.0800 -49.8510 163° South 435 501 24,100 -1,875 Descending FlightAware ADS-B
Wed 02:06:28 PM -25.1560 -49.8240 162° South 431 496 22,800 -1,976 Descending FlightAware ADS-B
Wed 02:07:13 PM -25.2470 -49.7920 162° South 424 488 21,300 -1,906 Descending FlightAware ADS-B
Wed 02:07:53 PM -25.3170 -49.7680 163° South 420 483 20,100 -1,835 Descending FlightAware ADS-B
Wed 02:08:38 PM -25.4020 -49.7380 162° South 415 478 18,700 -1,906 Descending FlightAware ADS-B
Wed 02:09:18 PM -25.4750 -49.7130 163° South 411 473 17,400 -1,553 Descending FlightAware ADS-B
Wed 02:10:03 PM -25.5580 -49.6840 163° South 393 452 16,500 -918 Descending FlightAware ADS-B
Wed 02:10:43 PM -25.6200 -49.6620 162° South 347 399 16,100 -947 Descending FlightAware ADS-B
Wed 02:11:38 PM -25.6700 -49.6450 163° South 337 388 15,000 -2,329 Descending FlightAware ADS-B
Wed 02:12:08 PM -25.7370 -49.6070 153° Southeast 341 392 12,800 -3,333 Descending FlightAware ADS-B
Wed 02:12:23 PM -25.7480 -49.5790 114° Southeast 334 384 12,500 -1,286 Descending FlightAware ADS-B
Wed 02:13:18 PM -25.7490 -49.4860 91° East 328 377 11,300 -1,267 Descending FlightAware ADS-B
Wed 02:13:53 PM -25.7490 -49.4290 90° East 319 367 10,600 -525 Descending FlightAware ADS-B
Wed 02:14:38 PM -25.7470 -49.3650 88° East 319 367 10,600 -1,125 Level FlightAware ADS-B
Wed 02:15:13 PM -25.7470 -49.3080 90° East 312 359 9,100 -1,500 Descending FlightAware ADS-B
Wed 02:15:38 PM -25.7460 -49.2720 88° East 312 359 9,100  Level FlightAware ADS-B
Wed 02:15:58 PM -25.7460 -49.2450 90° East 312 359 9,100 -1,745 Level FlightAware ADS-B
Wed 02:16:33 PM -25.7460 -49.1830 90° East 304 350 7,500 -2,550 Descending FlightAware ADS-B
Wed 02:16:38 PM -25.7460 -49.1720 90° East 300 345 7,400 -436 Descending FlightAware ADS-B
Wed 02:17:28 PM -25.7450 -49.1460 88° East 261 300 7,100 -462 Descending FlightAware ADS-B
Wed 02:17:43 PM -25.7360 -49.0840 81° East 238 274 6,900 -1,050 Descending FlightAware ADS-B
Wed 02:18:08 PM -25.7150 -49.0670 36° Northeast 213 245 6,400 -675 Descending FlightAware ADS-B
Wed 02:19:03 PM -25.6960 -49.0570 25° Northeast 200 230 6,000 -600 Descending FlightAware ADS-B
Wed 02:20:38 PM -25.7150 -49.0670 205° Southwest 190 219 4,900 -550 Descending FlightAware ADS-B
Wed 02:21:03 PM -25.6970 -49.0590 22° Northeast 190 219 4,900 -540 Level FlightAware ADS-B
Wed 02:22:18 PM -25.7040 -49.0790 249° West 159 183 4,000 -720 Descending FlightAware ADS-B
Wed 02:26:00 PM -25.5167 -49.1667 146° Southeast  Level FlightAware Approximate
Wed 02:27:00 PM -25.5285 -49.1758 146° Southeast  Level Estimated
Wed 02:28:00 PM -25.5285 -49.1758 146° Southeast  Level Estimated
Wed 02:29:00 PM -25.5285 -49.1758 146° Southeast  Level Estimated
Wed 02:30:00 PM -25.5285 -49.1758 146° Southeast  Level Estimated
Wed 02:31:00 PM -25.5285 -49.1758 146° Southeast  Level Estimated
Wed 02:32:00 PM -25.5285 -49.1758 146° Southeast  Level Estimated
Wed 02:33:00 PM -25.5285 -49.1758 146° Southeast  Level Estimated

Login

Don't have an account? Register now (free) for customized features, flight alerts, and more!